Time;durP1;ratioP1;P1;durP2;ratioP2;P2;SDS_P1;SDS_P2;PMS_P1;PMS_P2;Temp;Humidity;BMP_temperature;BMP_pressure;BME280_temperature;BME280_humidity;BME280_pressure;Samples;Min_cycle;Max_cycle;Signal;HPM_P1;HPM_P2
2022/07/03 00:01:25;;;;;;;3.28;2.00;;;17.50;70.50;;;16.58;80.68;96293.84;4944374;28;20527;-68
2022/07/03 00:03:51;;;;;;;3.35;1.77;;;17.40;70.70;;;16.57;81.79;96294.88;4945831;28;20034;-67
2022/07/03 00:06:17;;;;;;;3.17;1.70;;;17.50;71.20;;;16.57;81.82;96305.50;4950724;28;20107;-68
2022/07/03 00:08:42;;;;;;;2.95;1.98;;;17.40;71.30;;;16.56;81.76;96290.59;4964634;28;20192;-68
2022/07/03 00:11:08;;;;;;;3.25;1.70;;;17.40;71.30;;;16.55;82.26;96292.44;4946841;28;20031;-68
2022/07/03 00:13:34;;;;;;;3.35;2.00;;;17.40;71.30;;;16.54;82.25;96286.31;4940352;28;20444;-68
2022/07/03 00:16:00;;;;;;;3.47;2.10;;;17.50;71.30;;;16.51;82.40;96292.06;4945393;28;20170;-67
2022/07/03 00:18:26;;;;;;;4.20;2.17;;;17.50;71.00;;;16.52;82.02;96295.53;4945959;28;20043;-67
2022/07/03 00:21:06;;;;;;;4.30;2.00;;;17.50;71.50;;;16.51;83.61;96289.41;4962290;28;20057;-67
2022/07/03 00:23:55;;;;;;;2.90;2.20;;;17.40;71.40;;;16.50;84.59;96300.25;4945546;28;20049;-69
2022/07/03 00:26:21;;;;;;;1.90;1.65;;;17.40;71.50;;;16.44;82.80;96293.97;4959588;28;20298;-67
2022/07/03 00:28:47;;;;;;;3.35;2.10;;;17.40;71.60;;;16.44;82.95;96301.94;4978316;28;20566;-68
2022/07/03 00:31:13;;;;;;;4.28;2.28;;;17.30;71.90;;;16.42;83.26;96293.38;4933453;28;20466;-68
2022/07/03 00:33:39;;;;;;;4.07;2.20;;;17.30;72.00;;;16.42;84.02;96292.56;4955385;28;20095;-68
2022/07/03 00:36:05;;;;;;;3.08;2.00;;;17.30;72.10;;;16.40;84.27;96292.81;4949278;28;20039;-68
2022/07/03 00:38:30;;;;;;;2.90;2.15;;;17.30;72.20;;;16.38;84.04;96286.91;4944865;28;20038;-68
2022/07/03 00:40:56;;;;;;;3.47;2.03;;;17.30;72.30;;;16.37;84.01;96282.63;4943997;28;20034;-68
2022/07/03 00:43:22;;;;;;;4.25;2.22;;;17.40;72.30;;;16.35;84.98;96287.34;4944731;28;20045;-69
2022/07/03 00:45:49;;;;;;;3.80;2.58;;;17.30;72.40;;;16.36;84.43;96282.84;4931524;28;20121;-68
2022/07/03 00:48:16;;;;;;;3.20;2.42;;;17.30;72.20;;;16.34;84.32;96280.41;4909736;29;20092;-69
2022/07/03 00:50:47;;;;;;;4.07;2.30;;;17.30;72.00;;;16.35;85.67;96286.53;4943505;28;20043;-68
2022/07/03 00:53:13;;;;;;;3.80;2.22;;;17.20;72.50;;;16.32;85.00;96286.97;4934602;28;20747;-68
2022/07/03 00:55:41;;;;;;;2.97;2.08;;;17.20;72.60;;;16.30;84.70;96284.56;4944986;28;20234;-68
2022/07/03 00:58:07;;;;;;;3.30;2.20;;;17.30;72.80;;;16.29;84.83;96285.56;4930423;28;20121;-68
2022/07/03 01:00:35;;;;;;;3.97;2.63;;;17.10;72.60;;;16.26;84.86;96288.66;4941674;28;20102;-68
2022/07/03 01:03:06;;;;;;;3.35;2.38;;;17.10;72.50;;;16.27;85.47;96282.31;4931181;28;20038;-68
2022/07/03 01:05:37;;;;;;;3.80;2.38;;;17.10;72.60;;;16.25;85.56;96271.09;4965141;28;20035;-68
2022/07/03 01:08:19;;;;;;;2.92;2.40;;;17.20;72.50;;;16.23;86.86;96273.16;4948480;28;20041;-68
2022/07/03 01:11:10;;;;;;;3.30;2.35;;;17.10;72.50;;;16.21;86.57;96265.44;4966248;28;20875;-68
2022/07/03 01:14:19;;;;;;;3.28;2.55;;;17.10;73.00;;;16.20;86.06;96268.31;4962151;28;20073;-68
2022/07/03 01:16:59;;;;;;;3.30;2.30;;;17.10;72.50;;;16.15;86.72;96268.16;4963415;28;20073;-68
2022/07/03 01:19:43;;;;;;;3.53;2.53;;;17.10;72.90;;;16.12;85.98;96276.56;4947556;28;20122;-68
2022/07/03 01:22:44;;;;;;;5.45;2.70;;;17.10;73.00;;;16.10;87.43;96273.31;4943406;28;20070;-68
2022/07/03 01:25:26;;;;;;;3.78;2.20;;;17.10;73.00;;;16.03;87.45;96264.59;4948049;28;20034;-68
2022/07/03 01:28:11;;;;;;;2.88;2.22;;;17.00;73.30;;;16.01;88.32;96258.69;4943466;28;20051;-68
2022/07/03 01:30:52;;;;;;;4.03;2.20;;;16.90;73.70;;;15.96;88.27;96271.81;4910396;29;20146;-68
2022/07/03 01:33:22;;;;;;;;;;;16.80;74.00;;;15.90;89.02;96262.88;4912698;29;20439;-68
2022/07/03 01:36:00;;;;;;;2.83;2.10;;;16.80;74.30;;;15.85;88.14;96260.91;4913762;29;19961;-68
2022/07/03 01:38:27;;;;;;;2.75;2.20;;;16.80;74.40;;;15.80;87.79;96262.56;4948632;28;20046;-68
2022/07/03 01:40:54;;;;;;;4.97;2.33;;;16.70;74.70;;;15.74;87.47;96263.44;4940083;28;20529;-68
2022/07/03 01:43:20;;;;;;;3.30;2.38;;;16.60;74.80;;;15.70;87.64;96268.34;4948382;28;20038;-68
2022/07/03 01:45:47;;;;;;;3.90;2.75;;;16.60;74.80;;;15.65;88.26;96262.91;4945548;28;20451;-68
2022/07/03 01:48:13;;;;;;;4.05;2.40;;;16.60;74.80;;;15.64;88.37;96274.53;4950329;28;20082;-68
2022/07/03 01:50:40;;;;;;;3.53;2.80;;;16.50;74.70;;;15.59;88.90;96272.50;4946476;28;20043;-68
2022/07/03 01:53:08;;;;;;;3.45;2.72;;;16.50;74.90;;;15.58;88.41;96272.69;4950056;28;20050;-68
2022/07/03 01:55:34;;;;;;;4.55;3.28;;;16.50;75.00;;;15.54;88.46;96276.81;4947635;28;20090;-68
2022/07/03 01:58:01;;;;;;;4.30;3.03;;;16.40;75.10;;;15.53;89.27;96277.84;4930526;28;20039;-68
2022/07/03 02:00:27;;;;;;;3.67;3.08;;;16.40;75.20;;;15.51;89.51;96272.75;4946046;28;20053;-68
2022/07/03 02:03:03;;;;;;;3.85;2.95;;;16.50;75.20;;;15.50;89.83;96276.44;4948512;28;20089;-68
2022/07/03 02:05:38;;;;;;;3.00;2.70;;;16.40;75.40;;;15.48;90.55;96270.53;4974327;28;20118;-68
2022/07/03 02:08:41;;;;;;;4.32;2.85;;;16.40;75.60;;;15.47;91.00;96273.41;4964295;28;20050;-68
2022/07/03 02:11:18;;;;;;;8.07;3.22;;;16.40;75.60;;;15.43;91.16;96269.56;4965236;28;20031;-68
2022/07/03 02:13:46;;;;;;;4.15;3.05;;;16.30;75.70;;;15.40;90.12;96264.69;4947052;28;20499;-68
2022/07/03 02:16:18;;;;;;;3.83;3.05;;;16.30;75.70;;;15.39;90.67;96265.69;4964033;28;20125;-68
2022/07/03 02:18:45;;;;;;;5.90;3.58;;;16.40;75.70;;;15.36;90.51;96266.13;4950737;28;20455;-69
2022/07/03 02:21:18;;;;;;;5.20;2.92;;;16.30;75.90;;;15.35;91.61;96264.50;4960734;28;20081;-68
2022/07/03 02:24:02;;;;;;;5.22;3.22;;;16.30;75.80;;;15.36;91.27;96274.06;4944052;28;20050;-68
2022/07/03 02:26:33;;;;;;;5.75;2.72;;;16.30;75.90;;;15.30;91.95;96263.31;4946660;28;20114;-68
2022/07/03 02:29:02;;;;;;;4.35;3.08;;;16.30;76.00;;;15.31;91.67;96270.25;4944966;28;20047;-68
2022/07/03 02:31:28;;;;;;;4.57;3.42;;;16.30;76.00;;;15.29;91.01;96274.94;4944537;28;20066;-68
2022/07/03 02:33:58;;;;;;;3.95;3.40;;;16.30;76.00;;;15.29;91.11;96272.28;4945663;28;20034;-68
2022/07/03 02:36:24;;;;;;;3.43;2.90;;;16.20;75.90;;;15.28;90.95;96267.22;4944988;28;20535;-68
2022/07/03 02:38:57;;;;;;;4.32;3.30;;;16.20;75.90;;;15.25;92.95;96275.59;4940998;28;20107;-68
2022/07/03 02:41:53;;;;;;;3.67;3.10;;;16.20;75.90;;;15.24;93.32;96269.47;4945528;28;20134;-68
2022/07/03 02:44:37;;;;;;;3.92;2.70;;;16.20;76.10;;;15.23;93.36;96278.47;4960939;28;20046;-68
2022/07/03 02:47:15;;;;;;;7.80;3.20;;;16.20;76.20;;;15.21;92.12;96280.50;4932107;28;20040;-68
2022/07/03 02:49:53;;;;;;;4.97;2.75;;;16.20;76.30;;;15.19;93.38;96281.75;4942306;28;20043;-68
2022/07/03 02:52:40;;;;;;;4.43;3.10;;;16.20;76.40;;;15.16;92.47;96283.00;4961298;28;20751;-69
2022/07/03 02:55:37;;;;;;;3.95;3.00;;;16.10;76.40;;;15.14;93.73;96287.66;4960532;28;20062;-68
2022/07/03 02:58:59;;;;;;;5.55;3.42;;;16.10;76.40;;;15.12;94.91;96289.72;4960026;28;20031;-68
2022/07/03 03:01:30;;;;;;;3.70;3.03;;;16.10;76.60;;;15.08;93.23;96275.28;4914946;28;20229;-68
2022/07/03 03:04:08;;;;;;;3.42;2.70;;;16.10;76.60;;;15.07;94.27;96286.91;4930085;28;20949;-69
2022/07/03 03:06:35;;;;;;;4.57;3.25;;;16.10;76.70;;;15.05;92.79;96281.00;4945841;28;20034;-68
2022/07/03 03:09:03;;;;;;;4.32;3.22;;;16.10;76.70;;;15.06;92.82;96287.94;4930884;28;20074;-68
2022/07/03 03:11:43;;;;;;;3.60;2.83;;;16.10;76.70;;;15.04;94.45;96286.50;4948592;28;20122;-68
2022/07/03 03:14:13;;;;;;;4.35;3.60;;;16.00;77.00;;;15.03;94.42;96291.00;4964882;28;20027;-68
2022/07/03 03:16:54;;;;;;;4.85;3.20;;;16.10;77.00;;;15.02;94.70;96286.72;4927037;28;20038;-68
2022/07/03 03:19:22;;;;;;;4.05;3.63;;;16.10;76.90;;;15.03;93.59;96298.94;4947235;28;20035;-68
2022/07/03 03:22:41;;;;;;;4.57;3.70;;;16.10;76.70;;;15.04;95.52;96299.75;4954979;28;20035;-69
2022/07/03 03:25:07;;;;;;;6.55;3.75;;;16.10;76.70;;;14.97;94.52;96299.81;4963658;28;20031;-68
2022/07/03 03:27:33;;;;;;;4.68;3.78;;;16.00;76.90;;;14.98;93.76;96296.13;4945242;28;20100;-68
2022/07/03 03:29:59;;;;;;;5.90;3.88;;;16.10;76.90;;;14.98;93.39;96296.94;4931239;28;20038;-68
2022/07/03 03:32:25;;;;;;;4.70;3.60;;;16.10;76.90;;;14.99;93.87;96309.16;4947541;28;20063;-68
2022/07/03 03:34:51;;;;;;;6.63;3.70;;;16.10;76.80;;;15.01;94.45;96308.94;4962444;28;20487;-68
2022/07/03 03:37:16;;;;;;;5.10;3.90;;;16.10;76.70;;;15.00;93.67;96310.78;4947964;28;20039;-68
2022/07/03 03:39:43;;;;;;;5.63;4.38;;;16.10;76.70;;;14.99;94.55;96314.47;4942790;28;20471;-68
2022/07/03 03:42:08;;;;;;;5.03;3.83;;;16.10;76.60;;;14.99;93.47;96316.28;4934661;28;20165;-68
2022/07/03 03:44:34;;;;;;;8.80;3.60;;;16.10;76.70;;;14.98;93.21;96312.03;4948002;28;20034;-68
2022/07/03 03:47:00;;;;;;;6.30;4.13;;;16.10;76.80;;;14.96;94.78;96316.72;4948951;28;20031;-68
2022/07/03 03:49:27;;;;;;;6.75;4.15;;;16.00;77.00;;;14.96;95.22;96319.38;4950795;28;20503;-68
2022/07/03 03:51:52;;;;;;;6.25;4.45;;;16.00;77.00;;;14.95;94.27;96320.41;4948911;28;20051;-68
2022/07/03 03:54:18;;;;;;;6.53;4.45;;;16.00;77.10;;;14.94;95.26;96321.41;4931796;28;20418;-68
2022/07/03 03:56:44;;;;;;;5.50;4.28;;;16.00;77.20;;;14.95;94.64;96318.56;4949050;28;20700;-68
2022/07/03 03:59:10;;;;;;;7.43;4.38;;;16.00;77.50;;;14.95;95.98;96323.03;4952596;28;20035;-68
2022/07/03 04:01:35;;;;;;;9.27;5.25;;;16.00;77.50;;;14.95;96.56;96323.03;4946639;28;20118;-69
2022/07/03 04:04:01;;;;;;;7.60;5.47;;;16.10;77.60;;;14.99;96.47;96318.94;4948166;28;20129;-68
2022/07/03 04:06:27;;;;;;;5.85;4.85;;;16.10;77.50;;;15.00;95.61;96320.56;4970195;28;20388;-68
2022/07/03 04:08:52;;;;;;;5.60;4.75;;;16.10;77.50;;;15.02;95.46;96326.47;4961797;28;20078;-68
2022/07/03 04:11:18;;;;;;;6.75;5.38;;;16.20;77.40;;;15.06;96.02;96326.84;4950439;28;20043;-69
2022/07/03 04:13:45;;;;;;;9.27;5.85;;;16.20;77.40;;;15.06;96.01;96330.31;4959681;28;20066;-67
2022/07/03 04:16:11;;;;;;;8.43;6.63;;;16.20;77.40;;;15.07;96.36;96326.63;4935789;28;20027;-67
2022/07/03 04:18:37;;;;;;;11.50;6.68;;;16.20;77.50;;;15.07;96.47;96324.00;4964396;28;20043;-67
2022/07/03 04:21:03;;;;;;;5.57;4.80;;;16.20;77.60;;;15.06;95.81;96330.31;4969711;28;20045;-67
2022/07/03 04:23:29;;;;;;;6.10;5.10;;;16.10;77.70;;;15.03;96.96;96333.38;4947948;28;20027;-67
2022/07/03 04:25:54;;;;;;;7.13;4.97;;;16.10;78.00;;;15.03;97.39;96333.38;4952832;28;20118;-67
2022/07/03 04:28:20;;;;;;;7.63;4.63;;;16.10;78.30;;;15.00;97.63;96331.16;4968478;28;20067;-67
2022/07/03 04:30:46;;;;;;;5.88;4.97;;;16.10;78.50;;;15.03;97.72;96333.38;4950752;28;20415;-67
2022/07/03 04:33:12;;;;;;;8.18;5.07;;;16.20;78.40;;;15.05;97.67;96327.88;4946869;28;20042;-67
2022/07/03 04:35:38;;;;;;;11.80;7.80;;;16.20;78.40;;;15.08;98.92;96327.44;4945755;28;20047;-67
2022/07/03 04:38:04;;;;;;;12.00;8.93;;;16.30;78.40;;;15.11;98.77;96322.53;4937024;28;20105;-67
2022/07/03 04:40:29;;;;;;;14.90;11.85;;;16.40;78.60;;;15.15;99.06;96322.91;4935049;28;20043;-67
2022/07/03 04:42:55;;;;;;;11.88;8.55;;;16.40;78.60;;;15.19;99.47;96318.84;4935140;28;20042;-67
2022/07/03 04:45:21;;;;;;;6.90;5.47;;;16.40;78.60;;;15.22;100.00;96321.88;4951782;28;20074;-68
2022/07/03 04:47:47;;;;;;;13.00;10.18;;;16.50;78.60;;;15.25;99.70;96324.09;4931480;28;20449;-68
2022/07/03 04:50:12;;;;;;;7.88;5.57;;;16.50;78.60;;;15.28;100.00;96323.69;4958616;28;20035;-66
2022/07/03 04:52:38;;;;;;;6.93;5.70;;;16.50;78.60;;;15.31;100.00;96323.25;4942671;28;20054;-66
2022/07/03 04:55:04;;;;;;;5.90;4.75;;;16.50;78.50;;;15.36;100.00;96319.13;4952184;28;20514;-67
2022/07/03 04:57:30;;;;;;;4.90;4.03;;;16.60;78.60;;;15.41;99.39;96316.69;4948794;28;20054;-67
2022/07/03 04:59:56;;;;;;;5.97;4.20;;;16.60;78.70;;;15.44;100.00;96326.84;4965131;28;20036;-67
2022/07/03 05:02:21;;;;;;;6.53;4.57;;;16.60;78.70;;;15.47;100.00;96323.78;4964846;28;20035;-67
2022/07/03 05:04:47;;;;;;;8.70;5.13;;;16.70;78.90;;;15.52;100.00;96334.53;4946810;28;20544;-68
2022/07/03 05:07:13;;;;;;;5.60;3.60;;;16.80;78.80;;;15.54;100.00;96333.28;4951699;28;20557;-68
2022/07/03 05:09:39;;;;;;;5.15;4.10;;;16.70;79.00;;;15.58;100.00;96328.38;4947312;28;20027;-67
2022/07/03 05:12:05;;;;;;;5.57;3.47;;;16.80;78.90;;;15.65;100.00;96331.03;4965470;28;20097;-66
2022/07/03 05:14:31;;;;;;;6.03;3.90;;;16.90;79.10;;;15.69;100.00;96334.88;4952822;28;20035;-66
2022/07/03 05:16:56;;;;;;;5.10;3.88;;;17.10;79.10;;;15.75;100.00;96334.81;4966468;28;20059;-68
2022/07/03 05:19:22;;;;;;;4.18;3.38;;;17.10;79.00;;;15.83;100.00;96339.84;4949632;28;20027;-70
2022/07/03 05:21:48;;;;;;;5.95;3.60;;;17.20;79.00;;;15.88;100.00;96345.34;4949083;28;20069;-69
2022/07/03 05:24:14;;;;;;;6.88;3.90;;;17.20;79.10;;;15.96;100.00;96343.44;4935240;28;20035;-73
2022/07/03 05:26:40;;;;;;;5.32;3.78;;;17.30;78.90;;;16.03;100.00;96336.22;4949782;28;20030;-68
2022/07/03 05:29:05;;;;;;;4.55;3.53;;;17.40;78.80;;;16.09;100.00;96346.00;4960415;28;20148;-73
2022/07/03 05:31:31;;;;;;;5.03;4.00;;;17.50;78.60;;;16.17;100.00;96338.56;4940841;28;20531;-69
2022/07/03 05:33:57;;;;;;;6.20;3.63;;;17.60;78.90;;;16.25;100.00;96340.13;4965323;28;21739;-69
2022/07/03 05:36:22;;;;;;;4.45;3.60;;;17.60;78.40;;;16.34;100.00;96344.13;4967104;28;20491;-66
2022/07/03 05:41:33;;;;;;;6.35;5.30;;;17.90;78.20;;;16.56;100.00;96349.03;4951067;28;20074;-70
2022/07/03 05:43:58;;;;;;;11.70;7.85;;;18.10;77.80;;;16.65;100.00;96348.50;4951023;28;20047;-68
2022/07/03 05:46:24;;;;;;;5.07;4.13;;;18.20;77.80;;;16.80;100.00;96348.19;4949727;28;20035;-68
2022/07/03 05:48:50;;;;;;;6.30;3.63;;;18.40;77.60;;;16.94;100.00;96354.94;4965234;28;20506;-68
2022/07/03 05:51:16;;;;;;;6.60;4.15;;;18.60;77.00;;;17.08;100.00;96356.41;4967148;28;20058;-68
2022/07/03 05:53:41;;;;;;;7.95;3.58;;;18.80;76.90;;;17.21;100.00;96355.47;4948912;28;20090;-68
2022/07/03 05:56:07;;;;;;;3.53;2.83;;;18.90;76.60;;;17.35;100.00;96354.22;4942528;28;20050;-68
2022/07/03 05:58:33;;;;;;;4.72;3.38;;;19.10;75.60;;;17.50;100.00;96358.34;4945249;28;20061;-68
2022/07/03 06:00:58;;;;;;;5.28;3.92;;;19.30;75.90;;;17.65;100.00;96359.56;4955704;28;20070;-68
2022/07/03 06:03:24;;;;;;;5.90;3.75;;;19.40;75.70;;;17.82;100.00;96356.25;4965260;28;20062;-68
2022/07/03 06:05:50;;;;;;;3.63;2.70;;;19.60;74.80;;;17.98;99.97;96360.94;4934858;28;20395;-68
2022/07/03 06:08:16;;;;;;;5.30;2.50;;;19.90;74.60;;;18.15;100.00;96367.22;4964184;28;20515;-69
2022/07/03 06:10:41;;;;;;;7.18;2.58;;;20.10;74.10;;;18.32;99.34;96357.47;4941926;28;20030;-68
2022/07/03 06:13:08;;;;;;;3.58;2.20;;;20.20;72.80;;;18.48;99.35;96355.97;4947305;28;20058;-66
2022/07/03 06:15:33;;;;;;;5.05;2.78;;;20.50;72.80;;;18.64;97.49;96355.31;4963587;28;20162;-68
2022/07/03 06:17:59;;;;;;;3.03;2.28;;;20.60;72.10;;;18.82;97.65;96357.03;4934596;28;20588;-68
2022/07/03 06:20:25;;;;;;;4.25;2.35;;;20.90;71.80;;;19.01;97.76;96355.03;4967531;28;20529;-68
2022/07/03 06:22:51;;;;;;;2.85;1.98;;;21.20;71.40;;;19.20;96.54;96359.13;4959135;28;20118;-68
2022/07/03 06:25:16;;;;;;;2.00;1.80;;;21.50;70.10;;;19.39;95.38;96361.63;4949186;28;20034;-68
2022/07/03 06:27:42;;;;;;;3.22;2.10;;;21.70;70.00;;;19.56;95.85;96358.00;4946261;28;20558;-68
2022/07/03 06:30:09;;;;;;;3.35;2.25;;;22.00;69.70;;;19.77;95.43;96358.38;4957580;28;20066;-68
2022/07/03 06:32:34;;;;;;;3.13;2.10;;;22.20;68.80;;;19.95;94.06;96350.13;4955097;28;20035;-69
2022/07/03 06:35:00;;;;;;;2.95;2.13;;;22.40;66.90;;;20.14;92.93;96351.53;4952973;28;20116;-69
2022/07/03 06:37:26;;;;;;;4.43;2.10;;;22.60;66.90;;;20.35;91.91;96349.94;4934881;28;20126;-68
2022/07/03 06:39:52;;;;;;;4.28;2.20;;;22.90;65.80;;;20.55;91.28;96346.81;4944608;28;20054;-68
2022/07/03 06:42:17;;;;;;;4.22;2.10;;;23.10;65.00;;;20.75;90.91;96357.78;4949671;28;20446;-68
2022/07/03 06:44:44;;;;;;;4.40;3.42;;;23.40;64.60;;;20.94;89.62;96352.16;4942204;28;20031;-68
2022/07/03 06:47:10;;;;;;;5.35;3.80;;;23.50;63.40;;;21.14;88.88;96349.72;4966307;28;20081;-68
2022/07/03 06:49:36;;;;;;;2.72;1.70;;;23.90;63.90;;;21.34;87.75;96352.69;4934084;28;20047;-69
2022/07/03 06:52:02;;;;;;;4.45;1.70;;;24.10;62.90;;;21.56;87.84;96359.88;4950118;28;20182;-68
2022/07/03 06:54:27;;;;;;;2.45;1.50;;;24.30;62.80;;;21.80;85.91;96360.38;4949486;28;20043;-69
2022/07/03 06:56:53;;;;;;;2.13;1.40;;;24.50;60.50;;;21.99;84.15;96365.13;4964971;28;20055;-69
2022/07/03 06:59:19;;;;;;;3.38;1.63;;;24.60;59.80;;;22.17;83.51;96353.22;4966402;28;20142;-69
2022/07/03 07:01:45;;;;;;;1.85;1.33;;;24.90;59.90;;;22.36;82.40;96352.81;4960485;28;20066;-69
2022/07/03 07:04:10;;;;;;;3.38;1.30;;;25.10;58.80;;;22.51;81.39;96353.75;4958356;28;20050;-69
2022/07/03 07:06:36;;;;;;;2.70;1.20;;;25.30;58.50;;;22.69;81.60;96357.09;4965220;28;20027;-71
2022/07/03 07:09:02;;;;;;;2.53;1.55;;;25.60;58.60;;;22.85;80.69;96358.78;4936956;28;20057;-69
2022/07/03 07:11:28;;;;;;;2.15;1.60;;;25.80;57.90;;;23.00;80.55;96353.50;4947996;28;20038;-70
2022/07/03 07:13:54;;;;;;;5.30;2.22;;;25.90;57.00;;;23.12;78.88;96362.16;4947073;28;20457;-70
2022/07/03 07:16:20;;;;;;;3.42;2.10;;;26.10;56.00;;;23.27;78.83;96356.03;4967745;28;20483;-70
2022/07/03 07:18:45;;;;;;;3.30;1.10;;;26.30;56.40;;;23.44;78.35;96355.84;4953190;28;20070;-69
2022/07/03 07:21:11;;;;;;;4.57;1.10;;;26.50;55.60;;;23.61;77.88;96348.41;4969245;28;20062;-69
2022/07/03 07:23:37;;;;;;;1.20;0.98;;;26.70;55.40;;;23.75;76.22;96352.16;4953035;28;20036;-69
2022/07/03 07:26:03;;;;;;;4.32;1.40;;;26.80;53.70;;;23.90;75.41;96361.34;4964717;28;20081;-69
2022/07/03 07:28:30;;;;;;;3.25;1.25;;;27.00;53.50;;;24.04;74.85;96346.31;4936852;28;20031;-69
2022/07/03 07:30:57;;;;;;;1.58;1.20;;;27.10;53.70;;;24.20;74.81;96347.91;4967739;28;20039;-69
2022/07/03 07:33:23;;;;;;;1.23;1.10;;;27.40;53.90;;;24.38;74.09;96350.09;4952985;28;20054;-70
2022/07/03 07:35:49;;;;;;;2.22;1.10;;;27.60;51.80;;;24.54;73.43;96350.06;4964600;28;20534;-69
2022/07/03 07:38:14;;;;;;;3.28;1.10;;;27.80;52.00;;;24.70;72.82;96346.28;4951919;28;20050;-70
2022/07/03 07:40:40;;;;;;;2.88;1.20;;;28.10;51.10;;;24.87;72.31;96354.84;4970722;28;20045;-68
2022/07/03 07:43:06;;;;;;;2.67;1.10;;;28.30;51.20;;;25.04;71.62;96349.97;4947810;28;20503;-68
2022/07/03 07:45:32;;;;;;;1.55;1.02;;;28.60;49.10;;;25.19;70.68;96345.63;4969264;28;20035;-70
2022/07/03 07:47:57;;;;;;;2.20;1.00;;;28.60;49.70;;;25.33;69.48;96358.19;4952685;28;20122;-68
2022/07/03 07:50:23;;;;;;;1.55;1.02;;;28.70;48.20;;;25.41;68.59;96343.38;4964997;28;20031;-66
2022/07/03 07:52:49;;;;;;;5.57;1.50;;;28.80;48.00;;;25.57;68.63;96352.16;4952662;28;20066;-66
2022/07/03 07:55:15;;;;;;;1.85;1.02;;;29.10;48.70;;;25.73;68.17;96352.91;4937849;28;20465;-66
2022/07/03 07:57:41;;;;;;;1.55;1.15;;;29.30;47.50;;;25.87;67.76;96356.59;4958958;28;20102;-66
2022/07/03 08:00:25;;;;;;;1.50;1.15;;;29.60;48.00;;;26.06;63.68;96354.06;4954425;28;20035;-68
2022/07/03 08:05:35;;;;;;;18.60;16.02;;;29.80;48.50;;;26.40;67.06;96337.88;4964796;28;20038;-67
2022/07/03 08:08:14;;;;;;;3.53;2.35;;;30.20;47.50;;;26.62;64.31;96340.09;4965583;28;20062;-66
2022/07/03 08:10:50;;;;;;;2.83;2.40;;;30.40;45.50;;;26.80;63.78;96342.88;4965782;28;20050;-66
2022/07/03 08:13:18;;;;;;;2.13;1.05;;;30.50;46.10;;;26.99;65.48;96340.28;4947952;28;20050;-72
2022/07/03 08:15:43;;;;;;;1.90;1.40;;;30.70;45.70;;;27.17;64.85;96341.44;4969197;28;20077;-68
2022/07/03 08:18:09;;;;;;;2.72;0.80;;;31.00;44.90;;;27.34;62.43;96339.03;4936349;28;20031;-67
2022/07/03 08:20:35;;;;;;;3.60;3.00;;;31.00;42.20;;;27.49;61.33;96338.03;4969454;28;20533;-67
2022/07/03 08:23:01;;;;;;;4.25;2.55;;;31.20;43.30;;;27.64;60.20;96337.06;4945606;28;20391;-68
2022/07/03 08:25:27;;;;;;;1.25;1.05;;;31.40;41.30;;;27.74;58.53;96324.19;4935316;28;20089;-67
2022/07/03 08:27:53;;;;;;;2.42;1.40;;;31.40;41.10;;;27.85;57.78;96341.09;4965892;28;20678;-67
2022/07/03 08:30:19;;;;;;;1.90;1.00;;;31.40;40.30;;;27.96;57.96;96331.72;4962249;28;20038;-69
2022/07/03 08:32:48;;;;;;;1.70;1.25;;;31.80;41.80;;;28.12;58.24;96328.78;4964491;28;20545;-68
2022/07/03 08:35:14;;;;;;;4.35;2.78;;;32.00;41.30;;;28.26;57.31;96329.63;4947187;28;20039;-67
2022/07/03 08:37:40;;;;;;;6.05;4.28;;;32.00;40.20;;;28.40;56.14;96330.50;4962406;28;20375;-67
2022/07/03 08:40:08;;;;;;;5.05;1.60;;;32.20;39.70;;;28.56;55.20;96331.03;4956794;28;20560;-69
2022/07/03 08:42:36;;;;;;;3.78;1.80;;;32.30;39.20;;;28.73;55.46;96327.72;4934620;28;20490;-68
2022/07/03 08:45:02;;;;;;;1.80;1.42;;;32.60;39.80;;;28.91;54.32;96322.25;4950716;28;20042;-68
2022/07/03 08:47:29;;;;;;;3.33;1.13;;;32.80;37.30;;;29.07;52.98;96317.34;4967779;28;20419;-68
2022/07/03 08:49:55;;;;;;;3.70;0.90;;;32.90;36.50;;;29.23;51.78;96315.94;4941652;28;20171;-68
2022/07/03 08:52:24;;;;;;;1.70;0.88;;;32.90;35.70;;;29.44;49.12;96315.53;4952191;28;20039;-68
2022/07/03 08:54:50;;;;;;;2.30;0.90;;;33.20;35.60;;;29.69;51.20;96312.28;4963841;28;20073;-68
2022/07/03 08:57:15;;;;;;;1.45;0.95;;;33.50;35.70;;;29.97;49.87;96323.03;4951741;28;20047;-68
2022/07/03 08:59:41;;;;;;;3.42;0.60;;;33.80;34.10;;;30.16;47.33;96318.25;4961100;28;20118;-68
2022/07/03 09:02:07;;;;;;;1.63;0.75;;;33.60;32.00;;;30.29;45.42;96322.00;4954806;28;20040;-67
2022/07/03 09:04:33;;;;;;;0.93;0.75;;;33.50;31.80;;;30.51;44.38;96310.31;4952477;28;20050;-68
2022/07/03 09:06:59;;;;;;;0.88;0.60;;;33.60;32.20;;;30.67;43.97;96314.25;4961301;28;20031;-69
2022/07/03 09:09:25;;;;;;;0.90;0.60;;;33.60;32.30;;;30.87;44.46;96305.56;4951803;28;20105;-69
2022/07/03 09:11:51;;;;;;;1.50;0.70;;;34.00;32.90;;;31.03;43.04;96312.19;4957056;28;20137;-69
2022/07/03 09:14:17;;;;;;;2.45;0.55;;;33.90;30.70;;;31.12;42.13;96314.91;4949539;28;20034;-69
2022/07/03 09:16:43;;;;;;;1.10;0.50;;;34.00;31.70;;;31.26;41.43;96306.69;4944274;28;20032;-69
2022/07/03 09:19:08;;;;;;;1.13;0.73;;;34.10;31.10;;;31.42;41.04;96299.66;4951179;28;20046;-69
2022/07/03 09:21:41;;;;;;;0.68;0.65;;;34.20;30.60;;;31.58;38.90;96300.81;4948552;28;20039;-69
2022/07/03 09:24:09;;;;;;;4.78;0.70;;;34.50;31.20;;;31.77;40.14;96303.25;4935153;28;20099;-69
2022/07/03 09:26:35;;;;;;;1.35;0.55;;;34.60;30.70;;;31.98;40.50;96303.41;4929511;28;20090;-68
2022/07/03 09:29:01;;;;;;;1.88;0.80;;;34.80;30.00;;;32.12;39.89;96309.47;4949062;28;20043;-67
2022/07/03 09:31:29;;;;;;;2.97;0.60;;;34.90;31.20;;;32.27;39.30;96306.28;4951360;28;20049;-68
2022/07/03 09:34:07;;;;;;;1.63;0.80;;;35.10;30.50;;;32.39;38.07;96302.09;4946420;28;20039;-69
2022/07/03 09:36:52;;;;;;;4.75;0.70;;;35.10;31.10;;;32.57;37.59;96304.44;4950999;28;20035;-69
2022/07/03 09:39:26;;;;;;;1.63;0.60;;;35.50;30.60;;;32.66;37.49;96296.25;4962195;28;20043;-71
2022/07/03 09:41:57;;;;;;;4.05;0.80;;;35.50;30.20;;;32.75;38.96;96302.47;4952617;28;20043;-71
2022/07/03 09:44:35;;;;;;;2.25;0.70;;;35.70;29.90;;;32.84;37.68;96306.00;4967261;28;20089;-71
2022/07/03 09:47:17;;;;;;;1.50;0.90;;;35.60;30.70;;;32.99;37.62;96301.09;4962103;28;20047;-71
2022/07/03 09:49:58;;;;;;;1.58;0.70;;;35.90;30.20;;;33.17;36.20;96297.16;4976317;28;20127;-71
2022/07/03 09:52:34;;;;;;;2.30;0.60;;;36.10;29.20;;;33.30;35.68;96292.63;4968234;28;20582;-68
2022/07/03 09:55:10;;;;;;;3.10;0.80;;;36.30;28.20;;;33.40;34.44;96297.72;4950060;28;20089;-68
2022/07/03 09:58:00;;;;;;;1.25;0.63;;;36.40;27.50;;;33.46;33.20;96291.72;4958485;28;20035;-68
2022/07/03 10:00:27;;;;;;;1.00;0.68;;;36.30;26.60;;;33.52;35.00;96299.72;4966298;28;20129;-68
2022/07/03 10:03:08;;;;;;;1.15;0.40;;;36.50;26.20;;;33.45;33.92;96292.84;4947332;28;20035;-69
2022/07/03 10:05:42;;;;;;;1.77;0.52;;;36.50;26.10;;;33.69;34.54;96294.13;4953241;28;20039;-68
2022/07/03 10:08:19;;;;;;;1.27;0.50;;;37.10;25.70;;;33.83;31.89;96291.13;4950941;28;20097;-69
2022/07/03 10:10:48;;;;;;;1.85;0.57;;;37.10;25.60;;;34.04;30.92;96294.69;4954678;28;20034;-68
2022/07/03 10:13:14;;;;;;;;;;;37.60;23.20;;;34.14;30.73;96288.78;4964583;28;20519;-68
2022/07/03 10:15:40;;;;;;;0.82;0.50;;;37.40;24.00;;;34.54;32.80;96290.97;4957080;28;19924;-69
2022/07/03 10:18:13;;;;;;;4.43;0.80;;;38.10;24.30;;;34.92;32.21;96288.00;4932932;28;20039;-67
2022/07/03 10:20:44;;;;;;;1.77;0.50;;;38.40;23.90;;;35.23;31.41;96279.22;4945485;28;20050;-69
2022/07/03 10:23:10;;;;;;;0.57;0.40;;;38.70;23.50;;;35.50;31.72;96280.44;4964863;28;20582;-69
2022/07/03 10:25:36;;;;;;;0.73;0.50;;;39.10;23.50;;;35.80;31.17;96270.81;4949237;28;20085;-68
2022/07/03 10:28:02;;;;;;;3.10;0.60;;;39.50;23.70;;;36.18;30.67;96275.00;4943717;28;20094;-71
2022/07/03 10:30:28;;;;;;;0.55;0.50;;;39.80;22.60;;;36.54;30.11;96275.97;4931753;28;20078;-69
2022/07/03 10:32:55;;;;;;;4.07;0.75;;;40.40;22.50;;;36.96;30.00;96273.56;4932955;28;20063;-68